sensor_id;sensor_type;location;lat;lon;timestamp;P1;durP1;ratioP1;P2;durP2;ratioP2
7575;SDS011;3829;50.798;4.358;2023-07-28T00:02:15;11.93;;;4.33;;
7575;SDS011;3829;50.798;4.358;2023-07-28T00:04:41;5.63;;;4.17;;
7575;SDS011;3829;50.798;4.358;2023-07-28T00:07:06;6.73;;;4.60;;
7575;SDS011;3829;50.798;4.358;2023-07-28T00:09:32;8.37;;;4.43;;
7575;SDS011;3829;50.798;4.358;2023-07-28T00:11:58;8.47;;;4.70;;
7575;SDS011;3829;50.798;4.358;2023-07-28T00:14:24;5.57;;;4.23;;
7575;SDS011;3829;50.798;4.358;2023-07-28T00:16:51;9.43;;;4.70;;
7575;SDS011;3829;50.798;4.358;2023-07-28T00:19:18;6.40;;;4.30;;
7575;SDS011;3829;50.798;4.358;2023-07-28T00:21:45;5.73;;;3.97;;
7575;SDS011;3829;50.798;4.358;2023-07-28T00:24:12;6.13;;;4.67;;
7575;SDS011;3829;50.798;4.358;2023-07-28T00:26:38;5.90;;;4.60;;
7575;SDS011;3829;50.798;4.358;2023-07-28T00:29:03;7.70;;;4.90;;
7575;SDS011;3829;50.798;4.358;2023-07-28T00:31:31;7.37;;;4.60;;
7575;SDS011;3829;50.798;4.358;2023-07-28T00:33:57;10.00;;;4.77;;
7575;SDS011;3829;50.798;4.358;2023-07-28T00:36:22;6.23;;;3.83;;
7575;SDS011;3829;50.798;4.358;2023-07-28T00:38:48;7.70;;;4.93;;
7575;SDS011;3829;50.798;4.358;2023-07-28T00:41:14;6.53;;;4.03;;
7575;SDS011;3829;50.798;4.358;2023-07-28T00:43:39;8.40;;;4.97;;
7575;SDS011;3829;50.798;4.358;2023-07-28T00:46:05;7.30;;;4.80;;
7575;SDS011;3829;50.798;4.358;2023-07-28T00:48:31;4.93;;;4.30;;
7575;SDS011;3829;50.798;4.358;2023-07-28T00:50:57;6.37;;;4.90;;
7575;SDS011;3829;50.798;4.358;2023-07-28T00:53:23;10.03;;;4.53;;
7575;SDS011;3829;50.798;4.358;2023-07-28T00:55:49;6.77;;;5.20;;
7575;SDS011;3829;50.798;4.358;2023-07-28T00:58:15;8.93;;;5.10;;
7575;SDS011;3829;50.798;4.358;2023-07-28T01:00:41;9.00;;;4.57;;
7575;SDS011;3829;50.798;4.358;2023-07-28T01:03:07;5.93;;;4.57;;
7575;SDS011;3829;50.798;4.358;2023-07-28T01:05:39;10.37;;;4.80;;
7575;SDS011;3829;50.798;4.358;2023-07-28T01:11:12;13.37;;;5.07;;
7575;SDS011;3829;50.798;4.358;2023-07-28T01:13:39;5.53;;;4.40;;
7575;SDS011;3829;50.798;4.358;2023-07-28T01:16:05;7.93;;;4.67;;
7575;SDS011;3829;50.798;4.358;2023-07-28T01:18:30;5.43;;;4.47;;
7575;SDS011;3829;50.798;4.358;2023-07-28T01:20:56;7.33;;;4.70;;
7575;SDS011;3829;50.798;4.358;2023-07-28T01:23:31;5.97;;;4.90;;
7575;SDS011;3829;50.798;4.358;2023-07-28T01:26:10;8.67;;;5.03;;
7575;SDS011;3829;50.798;4.358;2023-07-28T01:28:37;6.83;;;5.00;;
7575;SDS011;3829;50.798;4.358;2023-07-28T01:31:05;9.90;;;5.40;;
7575;SDS011;3829;50.798;4.358;2023-07-28T01:33:32;11.53;;;5.30;;
7575;SDS011;3829;50.798;4.358;2023-07-28T01:35:58;7.97;;;5.60;;
7575;SDS011;3829;50.798;4.358;2023-07-28T01:38:25;7.07;;;5.07;;
7575;SDS011;3829;50.798;4.358;2023-07-28T01:40:53;12.03;;;5.70;;
7575;SDS011;3829;50.798;4.358;2023-07-28T01:43:18;9.67;;;5.03;;
7575;SDS011;3829;50.798;4.358;2023-07-28T01:45:44;8.60;;;5.47;;
7575;SDS011;3829;50.798;4.358;2023-07-28T01:48:10;10.07;;;4.80;;
7575;SDS011;3829;50.798;4.358;2023-07-28T01:50:35;8.37;;;5.50;;
7575;SDS011;3829;50.798;4.358;2023-07-28T01:53:01;7.80;;;5.20;;
7575;SDS011;3829;50.798;4.358;2023-07-28T01:55:27;9.60;;;6.40;;
7575;SDS011;3829;50.798;4.358;2023-07-28T01:57:56;11.50;;;5.27;;
7575;SDS011;3829;50.798;4.358;2023-07-28T02:00:24;9.20;;;4.87;;
7575;SDS011;3829;50.798;4.358;2023-07-28T02:02:50;10.63;;;5.57;;
7575;SDS011;3829;50.798;4.358;2023-07-28T02:05:16;10.20;;;5.87;;
7575;SDS011;3829;50.798;4.358;2023-07-28T02:07:42;12.60;;;5.17;;
7575;SDS011;3829;50.798;4.358;2023-07-28T02:10:07;8.20;;;5.40;;
7575;SDS011;3829;50.798;4.358;2023-07-28T02:12:35;10.67;;;5.87;;
7575;SDS011;3829;50.798;4.358;2023-07-28T02:15:01;11.37;;;5.63;;
7575;SDS011;3829;50.798;4.358;2023-07-28T02:17:27;12.70;;;6.07;;
7575;SDS011;3829;50.798;4.358;2023-07-28T02:19:52;12.10;;;5.03;;
7575;SDS011;3829;50.798;4.358;2023-07-28T02:22:18;7.83;;;5.17;;
7575;SDS011;3829;50.798;4.358;2023-07-28T02:24:44;8.93;;;5.50;;
7575;SDS011;3829;50.798;4.358;2023-07-28T02:27:09;14.77;;;5.30;;
7575;SDS011;3829;50.798;4.358;2023-07-28T02:29:35;9.60;;;5.50;;
7575;SDS011;3829;50.798;4.358;2023-07-28T02:32:01;8.23;;;5.93;;
7575;SDS011;3829;50.798;4.358;2023-07-28T02:34:26;10.50;;;5.27;;
7575;SDS011;3829;50.798;4.358;2023-07-28T02:36:52;8.90;;;6.03;;
7575;SDS011;3829;50.798;4.358;2023-07-28T02:39:17;8.47;;;5.43;;
7575;SDS011;3829;50.798;4.358;2023-07-28T02:41:44;9.30;;;5.63;;
7575;SDS011;3829;50.798;4.358;2023-07-28T02:44:09;9.77;;;5.50;;
7575;SDS011;3829;50.798;4.358;2023-07-28T02:46:35;6.20;;;5.40;;
7575;SDS011;3829;50.798;4.358;2023-07-28T02:49:02;8.33;;;5.40;;
7575;SDS011;3829;50.798;4.358;2023-07-28T02:51:29;8.00;;;5.80;;
7575;SDS011;3829;50.798;4.358;2023-07-28T02:53:55;8.00;;;5.53;;
7575;SDS011;3829;50.798;4.358;2023-07-28T02:56:20;7.63;;;6.10;;
7575;SDS011;3829;50.798;4.358;2023-07-28T02:58:47;11.13;;;5.83;;
7575;SDS011;3829;50.798;4.358;2023-07-28T03:01:13;7.80;;;5.53;;
7575;SDS011;3829;50.798;4.358;2023-07-28T03:03:38;8.60;;;5.53;;
7575;SDS011;3829;50.798;4.358;2023-07-28T03:06:04;6.83;;;5.33;;
7575;SDS011;3829;50.798;4.358;2023-07-28T03:08:30;11.60;;;5.13;;
7575;SDS011;3829;50.798;4.358;2023-07-28T03:10:56;11.50;;;5.53;;
7575;SDS011;3829;50.798;4.358;2023-07-28T03:13:22;9.40;;;5.30;;
7575;SDS011;3829;50.798;4.358;2023-07-28T03:15:48;6.53;;;5.70;;
7575;SDS011;3829;50.798;4.358;2023-07-28T03:18:14;8.03;;;5.07;;
7575;SDS011;3829;50.798;4.358;2023-07-28T03:20:39;7.80;;;5.60;;
7575;SDS011;3829;50.798;4.358;2023-07-28T03:23:05;9.60;;;5.57;;
7575;SDS011;3829;50.798;4.358;2023-07-28T03:25:30;8.53;;;5.53;;
7575;SDS011;3829;50.798;4.358;2023-07-28T03:27:56;7.70;;;5.27;;
7575;SDS011;3829;50.798;4.358;2023-07-28T03:30:21;6.33;;;4.97;;
7575;SDS011;3829;50.798;4.358;2023-07-28T03:32:47;9.17;;;5.10;;
7575;SDS011;3829;50.798;4.358;2023-07-28T03:35:13;11.37;;;5.07;;
7575;SDS011;3829;50.798;4.358;2023-07-28T03:37:38;7.03;;;4.83;;
7575;SDS011;3829;50.798;4.358;2023-07-28T03:40:04;10.53;;;5.73;;
7575;SDS011;3829;50.798;4.358;2023-07-28T03:42:30;8.40;;;4.63;;
7575;SDS011;3829;50.798;4.358;2023-07-28T03:44:56;5.80;;;4.30;;
7575;SDS011;3829;50.798;4.358;2023-07-28T03:47:22;5.07;;;4.47;;
7575;SDS011;3829;50.798;4.358;2023-07-28T03:49:48;7.10;;;4.83;;
7575;SDS011;3829;50.798;4.358;2023-07-28T03:52:14;7.87;;;4.87;;
7575;SDS011;3829;50.798;4.358;2023-07-28T03:54:40;9.27;;;4.97;;
7575;SDS011;3829;50.798;4.358;2023-07-28T03:57:05;7.00;;;4.33;;
7575;SDS011;3829;50.798;4.358;2023-07-28T03:59:31;9.27;;;4.50;;
7575;SDS011;3829;50.798;4.358;2023-07-28T04:01:57;6.63;;;4.50;;
7575;SDS011;3829;50.798;4.358;2023-07-28T04:04:23;5.27;;;3.93;;
7575;SDS011;3829;50.798;4.358;2023-07-28T04:06:49;7.50;;;4.23;;
7575;SDS011;3829;50.798;4.358;2023-07-28T04:09:16;8.23;;;4.30;;
7575;SDS011;3829;50.798;4.358;2023-07-28T04:11:42;6.47;;;4.43;;
7575;SDS011;3829;50.798;4.358;2023-07-28T04:14:08;6.80;;;4.30;;
7575;SDS011;3829;50.798;4.358;2023-07-28T04:16:34;7.23;;;4.40;;
7575;SDS011;3829;50.798;4.358;2023-07-28T04:19:00;8.53;;;3.47;;
7575;SDS011;3829;50.798;4.358;2023-07-28T04:21:26;6.60;;;4.10;;
7575;SDS011;3829;50.798;4.358;2023-07-28T04:23:52;6.57;;;3.50;;
7575;SDS011;3829;50.798;4.358;2023-07-28T04:26:18;3.90;;;3.17;;
7575;SDS011;3829;50.798;4.358;2023-07-28T04:28:43;5.30;;;3.77;;
7575;SDS011;3829;50.798;4.358;2023-07-28T04:31:10;9.17;;;3.77;;
7575;SDS011;3829;50.798;4.358;2023-07-28T04:33:36;5.27;;;3.53;;
7575;SDS011;3829;50.798;4.358;2023-07-28T04:36:02;6.50;;;3.70;;
7575;SDS011;3829;50.798;4.358;2023-07-28T04:38:28;7.40;;;3.33;;
7575;SDS011;3829;50.798;4.358;2023-07-28T04:40:53;4.70;;;3.60;;
7575;SDS011;3829;50.798;4.358;2023-07-28T04:43:19;4.30;;;3.43;;
7575;SDS011;3829;50.798;4.358;2023-07-28T04:45:45;7.87;;;3.37;;
7575;SDS011;3829;50.798;4.358;2023-07-28T04:48:10;6.23;;;4.00;;
7575;SDS011;3829;50.798;4.358;2023-07-28T04:50:36;4.80;;;3.70;;
7575;SDS011;3829;50.798;4.358;2023-07-28T04:53:02;4.70;;;3.33;;
7575;SDS011;3829;50.798;4.358;2023-07-28T04:55:28;5.53;;;3.60;;
7575;SDS011;3829;50.798;4.358;2023-07-28T04:57:55;10.77;;;5.13;;
7575;SDS011;3829;50.798;4.358;2023-07-28T05:00:20;6.70;;;3.20;;
7575;SDS011;3829;50.798;4.358;2023-07-28T05:02:46;4.27;;;3.60;;
7575;SDS011;3829;50.798;4.358;2023-07-28T05:05:12;8.77;;;3.93;;
7575;SDS011;3829;50.798;4.358;2023-07-28T05:07:37;5.13;;;3.50;;
7575;SDS011;3829;50.798;4.358;2023-07-28T05:10:03;5.73;;;3.30;;
7575;SDS011;3829;50.798;4.358;2023-07-28T05:12:29;5.40;;;3.47;;
7575;SDS011;3829;50.798;4.358;2023-07-28T05:14:54;3.60;;;3.17;;
7575;SDS011;3829;50.798;4.358;2023-07-28T05:17:20;4.07;;;3.30;;
7575;SDS011;3829;50.798;4.358;2023-07-28T05:19:46;5.37;;;3.13;;
7575;SDS011;3829;50.798;4.358;2023-07-28T05:22:11;3.93;;;2.90;;
7575;SDS011;3829;50.798;4.358;2023-07-28T05:24:37;6.30;;;3.80;;
7575;SDS011;3829;50.798;4.358;2023-07-28T05:27:02;7.97;;;3.43;;
7575;SDS011;3829;50.798;4.358;2023-07-28T05:29:28;3.50;;;3.20;;
7575;SDS011;3829;50.798;4.358;2023-07-28T05:31:54;6.13;;;3.13;;
7575;SDS011;3829;50.798;4.358;2023-07-28T05:34:19;3.87;;;2.83;;
7575;SDS011;3829;50.798;4.358;2023-07-28T05:36:45;3.87;;;2.80;;
7575;SDS011;3829;50.798;4.358;2023-07-28T05:39:10;2.60;;;2.40;;
7575;SDS011;3829;50.798;4.358;2023-07-28T05:41:36;3.47;;;2.50;;
7575;SDS011;3829;50.798;4.358;2023-07-28T05:44:02;2.53;;;2.33;;
7575;SDS011;3829;50.798;4.358;2023-07-28T05:46:28;4.10;;;2.00;;
7575;SDS011;3829;50.798;4.358;2023-07-28T05:48:54;2.67;;;1.90;;
7575;SDS011;3829;50.798;4.358;2023-07-28T05:51:21;2.97;;;2.00;;
7575;SDS011;3829;50.798;4.358;2023-07-28T05:53:47;3.53;;;1.87;;
7575;SDS011;3829;50.798;4.358;2023-07-28T05:56:13;2.67;;;2.20;;
7575;SDS011;3829;50.798;4.358;2023-07-28T05:58:38;2.97;;;1.73;;
7575;SDS011;3829;50.798;4.358;2023-07-28T06:01:04;2.33;;;2.13;;
7575;SDS011;3829;50.798;4.358;2023-07-28T06:03:29;4.07;;;2.40;;
7575;SDS011;3829;50.798;4.358;2023-07-28T06:05:55;2.90;;;2.37;;
7575;SDS011;3829;50.798;4.358;2023-07-28T06:08:24;4.17;;;3.10;;
7575;SDS011;3829;50.798;4.358;2023-07-28T06:10:49;4.37;;;2.80;;
7575;SDS011;3829;50.798;4.358;2023-07-28T06:13:15;3.07;;;2.53;;
7575;SDS011;3829;50.798;4.358;2023-07-28T06:15:41;3.90;;;3.03;;
7575;SDS011;3829;50.798;4.358;2023-07-28T06:18:07;4.90;;;3.13;;
7575;SDS011;3829;50.798;4.358;2023-07-28T06:20:33;4.07;;;2.90;;
7575;SDS011;3829;50.798;4.358;2023-07-28T06:22:59;3.57;;;3.27;;
7575;SDS011;3829;50.798;4.358;2023-07-28T06:25:25;6.63;;;3.43;;
7575;SDS011;3829;50.798;4.358;2023-07-28T06:27:51;3.57;;;2.80;;
7575;SDS011;3829;50.798;4.358;2023-07-28T06:30:17;3.40;;;2.90;;
7575;SDS011;3829;50.798;4.358;2023-07-28T06:32:43;5.00;;;3.40;;
7575;SDS011;3829;50.798;4.358;2023-07-28T06:35:08;3.30;;;2.87;;
7575;SDS011;3829;50.798;4.358;2023-07-28T06:37:35;4.57;;;2.93;;
7575;SDS011;3829;50.798;4.358;2023-07-28T06:40:02;10.10;;;3.13;;
7575;SDS011;3829;50.798;4.358;2023-07-28T06:42:30;3.50;;;2.93;;
7575;SDS011;3829;50.798;4.358;2023-07-28T06:44:57;3.53;;;2.90;;
7575;SDS011;3829;50.798;4.358;2023-07-28T06:47:23;4.47;;;3.50;;
7575;SDS011;3829;50.798;4.358;2023-07-28T06:49:48;4.50;;;3.40;;
7575;SDS011;3829;50.798;4.358;2023-07-28T06:52:14;4.27;;;3.17;;
7575;SDS011;3829;50.798;4.358;2023-07-28T06:54:39;3.97;;;3.20;;
7575;SDS011;3829;50.798;4.358;2023-07-28T06:57:05;3.53;;;3.10;;
7575;SDS011;3829;50.798;4.358;2023-07-28T06:59:31;4.77;;;3.30;;
7575;SDS011;3829;50.798;4.358;2023-07-28T07:01:57;2.93;;;2.63;;
7575;SDS011;3829;50.798;4.358;2023-07-28T07:04:23;3.20;;;2.90;;
7575;SDS011;3829;50.798;4.358;2023-07-28T07:06:48;5.50;;;3.00;;
7575;SDS011;3829;50.798;4.358;2023-07-28T07:09:14;5.97;;;2.90;;
7575;SDS011;3829;50.798;4.358;2023-07-28T07:11:40;6.43;;;2.80;;
7575;SDS011;3829;50.798;4.358;2023-07-28T07:14:06;5.77;;;3.37;;
7575;SDS011;3829;50.798;4.358;2023-07-28T07:16:32;4.03;;;2.80;;
7575;SDS011;3829;50.798;4.358;2023-07-28T07:18:59;5.40;;;3.17;;
7575;SDS011;3829;50.798;4.358;2023-07-28T07:21:26;4.93;;;2.60;;
7575;SDS011;3829;50.798;4.358;2023-07-28T07:23:52;1.60;;;1.33;;
7575;SDS011;3829;50.798;4.358;2023-07-28T07:26:19;3.60;;;1.37;;
7575;SDS011;3829;50.798;4.358;2023-07-28T07:28:45;2.50;;;1.30;;
7575;SDS011;3829;50.798;4.358;2023-07-28T07:31:12;2.13;;;1.30;;
7575;SDS011;3829;50.798;4.358;2023-07-28T07:33:38;2.03;;;1.40;;
7575;SDS011;3829;50.798;4.358;2023-07-28T07:36:04;1.30;;;1.20;;
7575;SDS011;3829;50.798;4.358;2023-07-28T07:38:30;1.83;;;1.73;;
7575;SDS011;3829;50.798;4.358;2023-07-28T07:40:55;3.20;;;2.10;;
7575;SDS011;3829;50.798;4.358;2023-07-28T07:43:21;2.13;;;1.77;;
7575;SDS011;3829;50.798;4.358;2023-07-28T07:45:47;2.33;;;2.13;;
7575;SDS011;3829;50.798;4.358;2023-07-28T07:48:15;3.10;;;2.43;;
7575;SDS011;3829;50.798;4.358;2023-07-28T07:50:40;3.30;;;2.33;;
7575;SDS011;3829;50.798;4.358;2023-07-28T07:53:06;5.60;;;2.50;;
7575;SDS011;3829;50.798;4.358;2023-07-28T07:55:31;6.70;;;3.77;;
7575;SDS011;3829;50.798;4.358;2023-07-28T07:57:57;3.07;;;2.43;;
7575;SDS011;3829;50.798;4.358;2023-07-28T08:00:23;3.87;;;2.20;;
7575;SDS011;3829;50.798;4.358;2023-07-28T08:02:49;2.30;;;1.90;;
7575;SDS011;3829;50.798;4.358;2023-07-28T08:05:14;3.93;;;2.67;;
7575;SDS011;3829;50.798;4.358;2023-07-28T08:07:40;2.80;;;2.03;;
7575;SDS011;3829;50.798;4.358;2023-07-28T08:10:06;2.10;;;1.90;;
7575;SDS011;3829;50.798;4.358;2023-07-28T08:12:32;3.93;;;1.90;;
7575;SDS011;3829;50.798;4.358;2023-07-28T08:14:58;2.23;;;2.03;;
7575;SDS011;3829;50.798;4.358;2023-07-28T08:17:23;2.87;;;2.33;;
7575;SDS011;3829;50.798;4.358;2023-07-28T08:19:49;6.40;;;2.20;;
7575;SDS011;3829;50.798;4.358;2023-07-28T08:22:15;2.00;;;1.90;;
7575;SDS011;3829;50.798;4.358;2023-07-28T08:24:40;1.80;;;1.70;;
7575;SDS011;3829;50.798;4.358;2023-07-28T08:27:06;1.40;;;1.30;;
7575;SDS011;3829;50.798;4.358;2023-07-28T08:29:32;3.37;;;1.50;;
7575;SDS011;3829;50.798;4.358;2023-07-28T08:31:57;1.50;;;1.40;;
7575;SDS011;3829;50.798;4.358;2023-07-28T08:34:23;1.63;;;1.40;;
7575;SDS011;3829;50.798;4.358;2023-07-28T08:36:48;1.50;;;1.40;;
7575;SDS011;3829;50.798;4.358;2023-07-28T08:39:14;1.50;;;1.27;;
7575;SDS011;3829;50.798;4.358;2023-07-28T08:41:40;4.87;;;1.50;;
7575;SDS011;3829;50.798;4.358;2023-07-28T08:44:06;2.00;;;1.10;;
7575;SDS011;3829;50.798;4.358;2023-07-28T08:46:32;3.63;;;1.23;;
7575;SDS011;3829;50.798;4.358;2023-07-28T08:48:59;0.93;;;0.93;;
7575;SDS011;3829;50.798;4.358;2023-07-28T08:51:26;1.43;;;1.00;;
7575;SDS011;3829;50.798;4.358;2023-07-28T08:53:51;2.67;;;1.00;;
7575;SDS011;3829;50.798;4.358;2023-07-28T08:56:17;1.10;;;0.80;;
7575;SDS011;3829;50.798;4.358;2023-07-28T08:58:44;1.13;;;1.03;;
7575;SDS011;3829;50.798;4.358;2023-07-28T09:01:10;1.37;;;1.00;;
7575;SDS011;3829;50.798;4.358;2023-07-28T09:03:36;1.97;;;1.10;;
7575;SDS011;3829;50.798;4.358;2023-07-28T09:06:06;2.10;;;1.00;;
7575;SDS011;3829;50.798;4.358;2023-07-28T09:08:35;1.77;;;1.23;;
7575;SDS011;3829;50.798;4.358;2023-07-28T09:11:03;1.00;;;1.00;;
7575;SDS011;3829;50.798;4.358;2023-07-28T09:13:38;2.33;;;1.20;;
7575;SDS011;3829;50.798;4.358;2023-07-28T09:18:43;0.90;;;0.90;;
7575;SDS011;3829;50.798;4.358;2023-07-28T09:21:15;1.37;;;1.13;;
7575;SDS011;3829;50.798;4.358;2023-07-28T09:23:43;1.70;;;1.53;;
7575;SDS011;3829;50.798;4.358;2023-07-28T09:26:09;2.03;;;1.30;;
7575;SDS011;3829;50.798;4.358;2023-07-28T09:28:38;6.33;;;1.77;;
7575;SDS011;3829;50.798;4.358;2023-07-28T09:31:05;2.77;;;1.80;;
7575;SDS011;3829;50.798;4.358;2023-07-28T09:33:31;2.73;;;1.73;;
7575;SDS011;3829;50.798;4.358;2023-07-28T09:36:06;1.77;;;1.57;;
7575;SDS011;3829;50.798;4.358;2023-07-28T09:38:37;1.73;;;1.60;;
7575;SDS011;3829;50.798;4.358;2023-07-28T09:41:05;1.80;;;1.50;;
7575;SDS011;3829;50.798;4.358;2023-07-28T09:43:34;2.23;;;1.60;;
7575;SDS011;3829;50.798;4.358;2023-07-28T09:46:06;2.80;;;1.77;;
7575;SDS011;3829;50.798;4.358;2023-07-28T09:48:38;2.63;;;2.00;;
7575;SDS011;3829;50.798;4.358;2023-07-28T09:51:08;2.70;;;2.20;;
7575;SDS011;3829;50.798;4.358;2023-07-28T09:53:53;2.83;;;1.80;;
7575;SDS011;3829;50.798;4.358;2023-07-28T09:56:25;2.97;;;1.87;;
7575;SDS011;3829;50.798;4.358;2023-07-28T09:58:54;3.03;;;1.80;;
7575;SDS011;3829;50.798;4.358;2023-07-28T10:01:22;2.20;;;2.00;;
7575;SDS011;3829;50.798;4.358;2023-07-28T10:03:48;2.47;;;1.93;;
7575;SDS011;3829;50.798;4.358;2023-07-28T10:06:15;2.57;;;2.10;;
7575;SDS011;3829;50.798;4.358;2023-07-28T10:08:42;2.77;;;1.93;;
7575;SDS011;3829;50.798;4.358;2023-07-28T10:11:09;1.60;;;1.50;;
7575;SDS011;3829;50.798;4.358;2023-07-28T10:13:40;2.07;;;1.83;;
7575;SDS011;3829;50.798;4.358;2023-07-28T10:16:07;1.63;;;1.53;;
7575;SDS011;3829;50.798;4.358;2023-07-28T10:18:34;2.20;;;1.63;;
7575;SDS011;3829;50.798;4.358;2023-07-28T10:21:04;1.67;;;1.40;;
7575;SDS011;3829;50.798;4.358;2023-07-28T10:23:38;3.43;;;1.70;;
7575;SDS011;3829;50.798;4.358;2023-07-28T10:26:04;2.87;;;1.80;;
7575;SDS011;3829;50.798;4.358;2023-07-28T10:28:33;3.10;;;1.60;;
7575;SDS011;3829;50.798;4.358;2023-07-28T10:31:03;2.03;;;1.73;;
7575;SDS011;3829;50.798;4.358;2023-07-28T10:33:33;2.67;;;1.70;;
7575;SDS011;3829;50.798;4.358;2023-07-28T10:38:41;2.93;;;2.70;;
7575;SDS011;3829;50.798;4.358;2023-07-28T10:41:10;3.90;;;2.50;;
7575;SDS011;3829;50.798;4.358;2023-07-28T10:43:38;3.43;;;3.00;;
7575;SDS011;3829;50.798;4.358;2023-07-28T10:46:05;3.97;;;3.57;;
7575;SDS011;3829;50.798;4.358;2023-07-28T10:48:34;4.53;;;4.13;;
7575;SDS011;3829;50.798;4.358;2023-07-28T10:51:01;5.63;;;5.13;;
7575;SDS011;3829;50.798;4.358;2023-07-28T10:53:26;6.00;;;4.73;;
7575;SDS011;3829;50.798;4.358;2023-07-28T10:55:52;5.10;;;4.60;;
7575;SDS011;3829;50.798;4.358;2023-07-28T10:58:18;5.43;;;4.90;;
7575;SDS011;3829;50.798;4.358;2023-07-28T11:00:45;4.93;;;4.43;;
7575;SDS011;3829;50.798;4.358;2023-07-28T11:03:10;4.60;;;4.20;;
7575;SDS011;3829;50.798;4.358;2023-07-28T11:05:37;5.20;;;3.37;;
7575;SDS011;3829;50.798;4.358;2023-07-28T11:08:05;5.43;;;3.47;;
7575;SDS011;3829;50.798;4.358;2023-07-28T11:10:32;4.83;;;3.53;;
7575;SDS011;3829;50.798;4.358;2023-07-28T11:12:59;6.00;;;3.60;;
7575;SDS011;3829;50.798;4.358;2023-07-28T11:15:26;3.33;;;2.73;;
7575;SDS011;3829;50.798;4.358;2023-07-28T11:17:52;5.03;;;2.60;;
7575;SDS011;3829;50.798;4.358;2023-07-28T11:20:18;3.20;;;2.90;;
7575;SDS011;3829;50.798;4.358;2023-07-28T11:22:51;5.40;;;2.90;;
7575;SDS011;3829;50.798;4.358;2023-07-28T11:25:19;3.30;;;2.70;;
7575;SDS011;3829;50.798;4.358;2023-07-28T11:27:46;5.57;;;2.83;;
7575;SDS011;3829;50.798;4.358;2023-07-28T11:30:12;5.23;;;3.10;;
7575;SDS011;3829;50.798;4.358;2023-07-28T11:32:39;3.40;;;3.10;;
7575;SDS011;3829;50.798;4.358;2023-07-28T11:35:09;4.47;;;3.33;;
7575;SDS011;3829;50.798;4.358;2023-07-28T11:37:37;3.37;;;3.07;;
7575;SDS011;3829;50.798;4.358;2023-07-28T11:40:04;3.40;;;3.10;;
7575;SDS011;3829;50.798;4.358;2023-07-28T11:42:33;2.90;;;2.63;;
7575;SDS011;3829;50.798;4.358;2023-07-28T11:45:02;5.00;;;2.50;;
7575;SDS011;3829;50.798;4.358;2023-07-28T11:47:28;3.53;;;2.60;;
7575;SDS011;3829;50.798;4.358;2023-07-28T11:49:55;2.47;;;2.27;;
7575;SDS011;3829;50.798;4.358;2023-07-28T11:52:23;2.77;;;2.57;;
7575;SDS011;3829;50.798;4.358;2023-07-28T11:54:53;2.90;;;2.60;;
7575;SDS011;3829;50.798;4.358;2023-07-28T11:57:19;2.70;;;2.30;;
7575;SDS011;3829;50.798;4.358;2023-07-28T11:59:45;4.27;;;2.40;;
7575;SDS011;3829;50.798;4.358;2023-07-28T12:02:11;2.80;;;2.60;;
7575;SDS011;3829;50.798;4.358;2023-07-28T12:04:37;2.43;;;2.23;;
7575;SDS011;3829;50.798;4.358;2023-07-28T12:07:05;2.93;;;2.63;;
7575;SDS011;3829;50.798;4.358;2023-07-28T12:09:33;2.60;;;2.10;;
7575;SDS011;3829;50.798;4.358;2023-07-28T12:12:24;3.77;;;2.10;;
7575;SDS011;3829;50.798;4.358;2023-07-28T12:14:51;3.43;;;2.03;;
7575;SDS011;3829;50.798;4.358;2023-07-28T12:17:18;9.73;;;1.90;;
7575;SDS011;3829;50.798;4.358;2023-07-28T12:22:27;3.03;;;1.57;;
7575;SDS011;3829;50.798;4.358;2023-07-28T12:24:54;3.77;;;1.70;;
7575;SDS011;3829;50.798;4.358;2023-07-28T12:27:19;3.27;;;1.47;;
7575;SDS011;3829;50.798;4.358;2023-07-28T12:29:49;2.83;;;1.70;;
7575;SDS011;3829;50.798;4.358;2023-07-28T12:32:15;2.33;;;1.73;;
7575;SDS011;3829;50.798;4.358;2023-07-28T12:34:40;1.47;;;1.37;;
7575;SDS011;3829;50.798;4.358;2023-07-28T12:37:06;3.50;;;1.60;;
7575;SDS011;3829;50.798;4.358;2023-07-28T12:39:32;2.20;;;1.50;;
7575;SDS011;3829;50.798;4.358;2023-07-28T12:41:58;2.50;;;1.43;;
7575;SDS011;3829;50.798;4.358;2023-07-28T12:44:24;1.87;;;1.40;;
7575;SDS011;3829;50.798;4.358;2023-07-28T12:46:49;3.37;;;1.17;;
7575;SDS011;3829;50.798;4.358;2023-07-28T12:49:15;1.97;;;1.43;;
7575;SDS011;3829;50.798;4.358;2023-07-28T12:51:41;1.60;;;1.50;;
7575;SDS011;3829;50.798;4.358;2023-07-28T12:54:06;1.17;;;1.07;;
7575;SDS011;3829;50.798;4.358;2023-07-28T12:56:32;3.73;;;1.40;;
7575;SDS011;3829;50.798;4.358;2023-07-28T12:58:58;2.00;;;1.30;;
7575;SDS011;3829;50.798;4.358;2023-07-28T13:01:23;4.27;;;1.40;;
7575;SDS011;3829;50.798;4.358;2023-07-28T13:03:49;2.27;;;1.63;;
7575;SDS011;3829;50.798;4.358;2023-07-28T13:06:15;2.60;;;1.60;;
7575;SDS011;3829;50.798;4.358;2023-07-28T13:08:40;2.13;;;1.50;;
7575;SDS011;3829;50.798;4.358;2023-07-28T13:11:06;1.97;;;1.30;;
7575;SDS011;3829;50.798;4.358;2023-07-28T13:13:31;1.97;;;1.50;;
7575;SDS011;3829;50.798;4.358;2023-07-28T13:15:58;3.10;;;1.30;;
7575;SDS011;3829;50.798;4.358;2023-07-28T13:18:24;1.50;;;1.40;;
7575;SDS011;3829;50.798;4.358;2023-07-28T13:20:50;3.87;;;1.60;;
7575;SDS011;3829;50.798;4.358;2023-07-28T13:23:16;1.50;;;1.40;;
7575;SDS011;3829;50.798;4.358;2023-07-28T13:25:42;1.43;;;1.23;;
7575;SDS011;3829;50.798;4.358;2023-07-28T13:28:07;1.87;;;1.23;;
7575;SDS011;3829;50.798;4.358;2023-07-28T13:30:33;1.80;;;1.43;;
7575;SDS011;3829;50.798;4.358;2023-07-28T13:32:58;4.83;;;1.30;;
7575;SDS011;3829;50.798;4.358;2023-07-28T13:35:24;1.30;;;1.20;;
7575;SDS011;3829;50.798;4.358;2023-07-28T13:37:50;1.47;;;1.37;;
7575;SDS011;3829;50.798;4.358;2023-07-28T13:40:15;1.50;;;1.33;;
7575;SDS011;3829;50.798;4.358;2023-07-28T13:42:41;1.23;;;1.13;;
7575;SDS011;3829;50.798;4.358;2023-07-28T13:45:08;1.70;;;1.30;;
7575;SDS011;3829;50.798;4.358;2023-07-28T13:47:34;3.13;;;1.20;;
7575;SDS011;3829;50.798;4.358;2023-07-28T13:49:59;1.10;;;1.00;;
7575;SDS011;3829;50.798;4.358;2023-07-28T13:52:25;1.37;;;1.10;;
7575;SDS011;3829;50.798;4.358;2023-07-28T13:54:51;1.50;;;1.40;;
7575;SDS011;3829;50.798;4.358;2023-07-28T13:57:16;1.30;;;1.10;;
7575;SDS011;3829;50.798;4.358;2023-07-28T13:59:42;2.43;;;1.10;;
7575;SDS011;3829;50.798;4.358;2023-07-28T14:02:07;2.80;;;1.10;;
7575;SDS011;3829;50.798;4.358;2023-07-28T14:04:33;2.67;;;1.30;;
7575;SDS011;3829;50.798;4.358;2023-07-28T14:06:59;2.67;;;1.30;;
7575;SDS011;3829;50.798;4.358;2023-07-28T14:09:24;1.73;;;1.10;;
7575;SDS011;3829;50.798;4.358;2023-07-28T14:11:50;1.30;;;1.13;;
7575;SDS011;3829;50.798;4.358;2023-07-28T14:14:15;2.37;;;1.13;;
7575;SDS011;3829;50.798;4.358;2023-07-28T14:16:41;1.00;;;1.00;;
7575;SDS011;3829;50.798;4.358;2023-07-28T14:19:07;2.63;;;1.10;;
7575;SDS011;3829;50.798;4.358;2023-07-28T14:21:34;1.90;;;1.30;;
7575;SDS011;3829;50.798;4.358;2023-07-28T14:23:59;1.23;;;1.07;;
7575;SDS011;3829;50.798;4.358;2023-07-28T14:26:25;1.60;;;1.40;;
7575;SDS011;3829;50.798;4.358;2023-07-28T14:28:50;3.20;;;1.00;;
7575;SDS011;3829;50.798;4.358;2023-07-28T14:31:16;1.13;;;0.97;;
7575;SDS011;3829;50.798;4.358;2023-07-28T14:33:42;0.90;;;0.90;;
7575;SDS011;3829;50.798;4.358;2023-07-28T14:36:08;3.47;;;1.47;;
7575;SDS011;3829;50.798;4.358;2023-07-28T14:38:34;1.03;;;1.00;;
7575;SDS011;3829;50.798;4.358;2023-07-28T14:40:59;1.47;;;1.20;;
7575;SDS011;3829;50.798;4.358;2023-07-28T14:43:25;0.90;;;0.90;;
7575;SDS011;3829;50.798;4.358;2023-07-28T14:45:50;1.83;;;1.07;;
7575;SDS011;3829;50.798;4.358;2023-07-28T14:48:16;1.47;;;1.00;;
7575;SDS011;3829;50.798;4.358;2023-07-28T14:50:42;1.43;;;1.27;;
7575;SDS011;3829;50.798;4.358;2023-07-28T14:55:53;1.30;;;1.03;;
7575;SDS011;3829;50.798;4.358;2023-07-28T14:58:19;1.23;;;1.03;;
7575;SDS011;3829;50.798;4.358;2023-07-28T15:00:45;8.50;;;1.27;;
7575;SDS011;3829;50.798;4.358;2023-07-28T15:03:11;2.93;;;1.00;;
7575;SDS011;3829;50.798;4.358;2023-07-28T15:05:39;1.20;;;1.10;;
7575;SDS011;3829;50.798;4.358;2023-07-28T15:08:06;1.57;;;1.27;;
7575;SDS011;3829;50.798;4.358;2023-07-28T15:10:31;1.30;;;1.20;;
7575;SDS011;3829;50.798;4.358;2023-07-28T15:12:57;1.93;;;1.20;;
7575;SDS011;3829;50.798;4.358;2023-07-28T15:15:23;1.00;;;1.00;;
7575;SDS011;3829;50.798;4.358;2023-07-28T15:17:49;4.30;;;1.10;;
7575;SDS011;3829;50.798;4.358;2023-07-28T15:20:14;2.50;;;1.00;;
7575;SDS011;3829;50.798;4.358;2023-07-28T15:22:44;1.20;;;1.10;;
7575;SDS011;3829;50.798;4.358;2023-07-28T15:25:11;2.10;;;0.90;;